aviador You're here:

EINN Decoded Metar

SHANNON in IRELAND
Report Time2017-09-23 09:00:00
UTC Time2017-09-23 09:13:01
Flight Rules vfr VFR
Wind160° at 23 Gusting to 33 kt
W.Decomp.*RWY 24: 6.0 kt HW 22.2 kt LCW
W.Rank160° ranks 13
Current wind is above 160° avg. (10.5)
Visibility9999 m
Phenomena:N/A
Clouds:Few 019 Hf
Scattered 026 Hf
Broken 140 Hf
Expected CloudBase > 2,000 ft AGL from Temp-Dew spread
Ceiling14,000 ft
Temp17°C (ISA +2)
Dew Point12°C (73% RH)
AAT9.4°C
QNH1009 hPa
Density Alt640 ft
Elevation66 ft
Report Wrong Elevation
Raw Report
METAR EINN 230900Z 16023G33KT 9999 FEW019 SCT026 BKN140 17/12 Q1009
NOSIG=

Extra information for EINN:More info

Metar Taf Metar & Taf Last 4 Metars F.Rules Stats Wind Profile Meteogram Temp Stats Airport Information Weather charts Add Link Nearby VenuesMetar ALERT Operation Metar Decoded Social comments